Mississippi Enterprise — WDE2542 — position and weather

sailwx.info

Track history (hours):
 
Tides and Currents Weather Stations Pressure Air Temp Water Temp Dewpoint Dewpoint Depression Visibility Wind Speed Wind Dir Waves Ship Positions

Mississippi Enterprise

Owner: U.S. United Ocean Services, LLC, Tampa, FL. More information available from US FCC via Universal Licensing System and Coast Guard Vessel Documentation Center.

Last reported at 2016-Aug-24 18:32 UTC. Time now 2016-Aug-24 19:42 UTC.
Position N 27°55' W 082°25'.

Length 187 m; draft 11.2 m.

Type: Cargo ship. MMSI: 369813000.

Date/timePositionNaut miles runAvg speedWind from/ knotsBaromVisibWave heightAir tempDewpointWater temp
2016-Aug-24 18:32N 27°55' W 082°25'0 0.0
2016-Aug-24 17:32N 27°55' W 082°25'0 0.0
2016-Aug-24 16:32N 27°55' W 082°25'0 0.0
2016-Aug-24 15:29N 27°55' W 082°25'0 0.0
2016-Aug-24 14:32N 27°55' W 082°25'0 0.0
2016-Aug-24 13:29N 27°55' W 082°25'0 0.0
2016-Aug-24 12:32N 27°55' W 082°25'0 0.0
2016-Aug-24 11:32N 27°55' W 082°25'0 0.0
2016-Aug-24 10:32N 27°55' W 082°25'0 0.0
2016-Aug-24 09:32N 27°55' W 082°25'0 0.0
2016-Aug-24 08:32N 27°55' W 082°25'0 0.0
2016-Aug-24 07:32N 27°55' W 082°25'0 0.0
2016-Aug-24 06:32N 27°55' W 082°25'0 0.0
2016-Aug-24 04:32N 27°55' W 082°25'0 0.0
2016-Aug-24 03:32N 27°55' W 082°25'0 0.0
2016-Aug-24 02:32N 27°55' W 082°25'0 0.0
2016-Aug-24 01:32N 27°55' W 082°25'1 0.7
2016-Aug-24 00:33N 27°56' W 082°26'0 0.0
2016-Aug-23 23:33N 27°56' W 082°26'0 0.0
2016-Aug-23 22:27N 27°56' W 082°26'0 0.0
2016-Aug-23 21:33N 27°56' W 082°26'0 0.0
2016-Aug-23 20:33N 27°56' W 082°26'0 0.0
2016-Aug-23 19:33N 27°56' W 082°26'0 0.0
2016-Aug-23 18:33N 27°56' W 082°26'0 0.0
2016-Aug-23 17:33N 27°56' W 082°26'0 0.0
2016-Aug-23 16:33N 27°56' W 082°26'0 0.0
2016-Aug-23 15:33N 27°56' W 082°26'0 0.0
2016-Aug-23 14:30N 27°56' W 082°26'0 0.0
2016-Aug-23 13:33N 27°56' W 082°26'0 0.0
2016-Aug-23 12:33N 27°56' W 082°26'0 0.1
2016-Aug-23 11:33N 27°56' W 082°26'0 0.0
2016-Aug-23 10:33N 27°56' W 082°26'0 0.0
2016-Aug-23 09:33N 27°56' W 082°26'0 0.0
2016-Aug-23 08:33N 27°56' W 082°26'0 0.0
2016-Aug-23 07:33N 27°56' W 082°26'0 0.0
2016-Aug-23 06:33N 27°56' W 082°26'0 0.0
2016-Aug-23 05:33N 27°56' W 082°26'0 0.0
2016-Aug-23 04:33N 27°56' W 082°26'0 0.0
2016-Aug-23 03:33N 27°56' W 082°26'0 0.0
2016-Aug-23 02:33N 27°56' W 082°26'0 0.0
2016-Aug-23 01:33N 27°56' W 082°26'0 0.0
2016-Aug-23 00:33N 27°56' W 082°26'0 0.0
2016-Aug-22 23:33N 27°56' W 082°26'0 0.0
2016-Aug-22 22:33N 27°56' W 082°26'0 0.0
2016-Aug-22 21:33N 27°56' W 082°26'0 0.0
2016-Aug-22 20:33N 27°56' W 082°26'0 0.0
2016-Aug-22 19:33N 27°56' W 082°26'0 0.0
2016-Aug-22 18:33N 27°56' W 082°26'0 0.0
2016-Aug-22 17:33N 27°56' W 082°26'6 6.1
2016-Aug-22 16:34N 27°50' W 082°27'179 4.5
2016-Aug-21 00:29N 25°53' W 079°54'1111.8
2016-Aug-20 23:33N 26°04' W 079°53'1211.6
2016-Aug-20 22:33N 26°16' W 079°51'1211.8
2016-Aug-20 21:33N 26°28' W 079°49'  
2016-Aug-16 06:33N 26°08' W 079°49'  
Track history (hours):
 
Tides and Currents Weather Stations Pressure Air Temp Water Temp Dewpoint Dewpoint Depression Visibility Wind Speed Wind Dir Waves Ship Positions

Mississippi Enterprise

Owner: U.S. United Ocean Services, LLC, Tampa, FL. More information available from US FCC via Universal Licensing System and Coast Guard Vessel Documentation Center.

Last reported at 2016-Aug-24 18:32 UTC. Time now 2016-Aug-24 19:42 UTC.
Position N 27°55' W 082°25'.

Length 187 m; draft 11.2 m.

Type: Cargo ship. MMSI: 369813000.

Date/timePositionNaut miles runAvg speedWind from/ knotsBaromVisibWave heightAir tempDewpointWater temp
2016-Aug-24 18:32N 27°55' W 082°25'0 0.0
2016-Aug-24 17:32N 27°55' W 082°25'0 0.0
2016-Aug-24 16:32N 27°55' W 082°25'0 0.0
2016-Aug-24 15:29N 27°55' W 082°25'0 0.0
2016-Aug-24 14:32N 27°55' W 082°25'0 0.0
2016-Aug-24 13:29N 27°55' W 082°25'0 0.0
2016-Aug-24 12:32N 27°55' W 082°25'0 0.0
2016-Aug-24 11:32N 27°55' W 082°25'0 0.0
2016-Aug-24 10:32N 27°55' W 082°25'0 0.0
2016-Aug-24 09:32N 27°55' W 082°25'0 0.0
2016-Aug-24 08:32N 27°55' W 082°25'0 0.0
2016-Aug-24 07:32N 27°55' W 082°25'0 0.0
2016-Aug-24 06:32N 27°55' W 082°25'0 0.0
2016-Aug-24 04:32N 27°55' W 082°25'0 0.0
2016-Aug-24 03:32N 27°55' W 082°25'0 0.0
2016-Aug-24 02:32N 27°55' W 082°25'0 0.0
2016-Aug-24 01:32N 27°55' W 082°25'1 0.7
2016-Aug-24 00:33N 27°56' W 082°26'0 0.0
2016-Aug-23 23:33N 27°56' W 082°26'0 0.0
2016-Aug-23 22:27N 27°56' W 082°26'0 0.0
2016-Aug-23 21:33N 27°56' W 082°26'0 0.0
2016-Aug-23 20:33N 27°56' W 082°26'0 0.0
2016-Aug-23 19:33N 27°56' W 082°26'0 0.0
2016-Aug-23 18:33N 27°56' W 082°26'0 0.0
2016-Aug-23 17:33N 27°56' W 082°26'0 0.0
2016-Aug-23 16:33N 27°56' W 082°26'0 0.0
2016-Aug-23 15:33N 27°56' W 082°26'0 0.0
2016-Aug-23 14:30N 27°56' W 082°26'0 0.0
2016-Aug-23 13:33N 27°56' W 082°26'0 0.0
2016-Aug-23 12:33N 27°56' W 082°26'0 0.1
2016-Aug-23 11:33N 27°56' W 082°26'0 0.0
2016-Aug-23 10:33N 27°56' W 082°26'0 0.0
2016-Aug-23 09:33N 27°56' W 082°26'0 0.0
2016-Aug-23 08:33N 27°56' W 082°26'0 0.0
2016-Aug-23 07:33N 27°56' W 082°26'0 0.0
2016-Aug-23 06:33N 27°56' W 082°26'0 0.0
2016-Aug-23 05:33N 27°56' W 082°26'0 0.0
2016-Aug-23 04:33N 27°56' W 082°26'0 0.0
2016-Aug-23 03:33N 27°56' W 082°26'0 0.0
2016-Aug-23 02:33N 27°56' W 082°26'0 0.0
2016-Aug-23 01:33N 27°56' W 082°26'0 0.0
2016-Aug-23 00:33N 27°56' W 082°26'0 0.0
2016-Aug-22 23:33N 27°56' W 082°26'0 0.0
2016-Aug-22 22:33N 27°56' W 082°26'0 0.0
2016-Aug-22 21:33N 27°56' W 082°26'0 0.0
2016-Aug-22 20:33N 27°56' W 082°26'0 0.0
2016-Aug-22 19:33N 27°56' W 082°26'0 0.0
2016-Aug-22 18:33N 27°56' W 082°26'0 0.0
2016-Aug-22 17:33N 27°56' W 082°26'6 6.1
2016-Aug-22 16:34N 27°50' W 082°27'179 4.5
2016-Aug-21 00:29N 25°53' W 079°54'1111.8
2016-Aug-20 23:33N 26°04' W 079°53'1211.6
2016-Aug-20 22:33N 26°16' W 079°51'1211.8
2016-Aug-20 21:33N 26°28' W 079°49'  
2016-Aug-16 06:33N 26°08' W 079°49'  

Dump ship's entire track history